Time;durP1;ratioP1;P1;durP2;ratioP2;P2;SDS_P1;SDS_P2;PMS_P1;PMS_P2;Temp;Humidity;BMP_temperature;BMP_pressure;BME280_temperature;BME280_humidity;BME280_pressure;Samples;Min_cycle;Max_cycle;Signal;HPM_P1;HPM_P2
2023/03/28 00:01:57;;;;;;;9.80;2.40;;;;;;;;;;5003610;28;20583;-74
2023/03/28 00:04:23;;;;;;;15.03;2.23;;;;;;;;;;4991735;28;20099;-74
2023/03/28 00:06:50;;;;;;;11.93;1.90;;;;;;;;;;4990863;28;20856;-74
2023/03/28 00:09:17;;;;;;;12.50;2.03;;;;;;;;;;4988299;28;20040;-73
2023/03/28 00:11:46;;;;;;;14.87;2.07;;;;;;;;;;4984857;28;20281;-74
2023/03/28 00:14:13;;;;;;;13.47;2.50;;;;;;;;;;5004740;28;20284;-74
2023/03/28 00:16:39;;;;;;;17.87;3.27;;;;;;;;;;4987211;28;20289;-74
2023/03/28 00:19:08;;;;;;;16.10;1.93;;;;;;;;;;4990168;28;20307;-74
2023/03/28 00:21:36;;;;;;;14.03;2.53;;;;;;;;;;4991212;28;20323;-75
2023/03/28 00:24:03;;;;;;;10.70;2.13;;;;;;;;;;4990924;28;20291;-74
2023/03/28 00:26:34;;;;;;;13.40;2.27;;;;;;;;;;4982510;28;21921;-74
2023/03/28 00:29:01;;;;;;;9.13;2.53;;;;;;;;;;4984138;28;20387;-74
2023/03/28 00:31:27;;;;;;;10.20;3.37;;;;;;;;;;4991299;28;20288;-74
2023/03/28 00:33:53;;;;;;;11.40;2.43;;;;;;;;;;4983718;28;20278;-74
2023/03/28 00:36:21;;;;;;;13.77;2.10;;;;;;;;;;4994451;28;20276;-73
2023/03/28 00:38:53;;;;;;;19.63;2.80;;;;;;;;;;4982144;28;20292;-74
2023/03/28 00:41:23;;;;;;;15.57;3.17;;;;;;;;;;4985111;28;20277;-74
2023/03/28 00:43:50;;;;;;;12.77;2.07;;;;;;;;;;4983300;28;20102;-74
2023/03/28 00:46:21;;;;;;;17.03;3.23;;;;;;;;;;4992780;28;20268;-74
2023/03/28 00:48:55;;;;;;;11.03;2.67;;;;;;;;;;4982986;28;20283;-74
2023/03/28 00:51:26;;;;;;;7.97;2.50;;;;;;;;;;4984935;28;20265;-75
2023/03/28 00:53:56;;;;;;;14.00;3.30;;;;;;;;;;4983907;28;20319;-74
2023/03/28 00:56:23;;;;;;;15.27;3.47;;;;;;;;;;5002568;28;20289;-74
2023/03/28 00:58:50;;;;;;;10.53;2.80;;;;;;;;;;5004088;28;20344;-74
2023/03/28 01:01:18;;;;;;;18.93;3.50;;;;;;;;;;4990402;28;20281;-74
2023/03/28 01:03:46;;;;;;;14.17;3.27;;;;;;;;;;4990185;28;20265;-75
2023/03/28 01:06:15;;;;;;;19.13;3.33;;;;;;;;;;5003903;28;20652;-74
2023/03/28 01:08:43;;;;;;;10.23;2.63;;;;;;;;;;5002108;28;20288;-75
2023/03/28 01:11:11;;;;;;;15.70;2.97;;;;;;;;;;4984153;28;20796;-74
2023/03/28 01:13:40;;;;;;;13.70;3.57;;;;;;;;;;4983313;28;22115;-74
2023/03/28 01:16:07;;;;;;;15.87;4.13;;;;;;;;;;4985866;28;20282;-73
2023/03/28 01:18:34;;;;;;;10.43;3.60;;;;;;;;;;4992944;28;20281;-74
2023/03/28 01:21:19;;;;;;;15.60;3.50;;;;;;;;;;4990940;28;20285;-74
2023/03/28 01:24:00;;;;;;;11.80;3.30;;;;;;;;;;4990439;28;20764;-74
2023/03/28 01:26:45;;;;;;;15.40;4.67;;;;;;;;;;5001045;28;20277;-74
2023/03/28 01:29:30;;;;;;;9.53;3.23;;;;;;;;;;5006031;28;20288;-74
2023/03/28 01:32:08;;;;;;;9.07;3.30;;;;;;;;;;4985766;28;20315;-74
2023/03/28 01:34:34;;;;;;;13.23;3.53;;;;;;;;;;4990204;28;20281;-74
2023/03/28 01:37:07;;;;;;;17.47;4.53;;;;;;;;;;4994854;28;20296;-74
2023/03/28 01:39:33;;;;;;;14.10;2.90;;;;;;;;;;4985812;28;20030;-74
2023/03/28 01:42:00;;;;;;;12.77;3.00;;;;;;;;;;4986477;28;20277;-74
2023/03/28 01:44:44;;;;;;;18.27;3.47;;;;;;;;;;5002802;28;20029;-74
2023/03/28 01:47:10;;;;;;;16.10;3.57;;;;;;;;;;4989674;28;20273;-74
2023/03/28 01:49:46;;;;;;;17.40;3.40;;;;;;;;;;4991345;28;20296;-74
2023/03/28 01:52:15;;;;;;;14.17;3.30;;;;;;;;;;4997130;28;21379;-74
2023/03/28 01:54:42;;;;;;;13.63;4.43;;;;;;;;;;4985775;28;20285;-74
2023/03/28 01:57:09;;;;;;;11.23;3.97;;;;;;;;;;5007728;28;20288;-74
2023/03/28 01:59:41;;;;;;;14.20;4.10;;;;;;;;;;5006846;28;20312;-75
2023/03/28 02:02:12;;;;;;;14.63;3.80;;;;;;;;;;4985965;28;20285;-74
2023/03/28 02:04:44;;;;;;;15.90;4.37;;;;;;;;;;4994790;28;20034;-73
2023/03/28 02:07:11;;;;;;;12.77;4.50;;;;;;;;;;4992834;28;20368;-75
2023/03/28 02:09:39;;;;;;;22.97;4.93;;;;;;;;;;4985881;28;20317;-74
2023/03/28 02:12:09;;;;;;;12.53;4.87;;;;;;;;;;5006926;28;20283;-74
2023/03/28 02:14:42;;;;;;;14.80;4.07;;;;;;;;;;5006323;28;20356;-74
2023/03/28 02:17:14;;;;;;;21.30;6.00;;;;;;;;;;5006210;28;20779;-75
2023/03/28 02:19:41;;;;;;;13.88;4.70;;;;;;;;;;5007424;28;20123;-74
2023/03/28 02:22:25;;;;;;;18.87;5.00;;;;;;;;;;4992962;28;21741;-75
2023/03/28 02:24:52;;;;;;;14.13;5.33;;;;;;;;;;5006945;28;20292;-74
2023/03/28 02:27:21;;;;;;;19.67;4.60;;;;;;;;;;5006873;28;20427;-74
2023/03/28 02:29:53;;;;;;;16.63;4.43;;;;;;;;;;5003414;28;20753;-74
2023/03/28 02:32:22;;;;;;;19.60;5.73;;;;;;;;;;4992638;28;20281;-74
2023/03/28 02:34:49;;;;;;;14.97;3.90;;;;;;;;;;4988326;28;20781;-75
2023/03/28 02:37:15;;;;;;;23.23;4.83;;;;;;;;;;5007162;28;20285;-75
2023/03/28 02:40:03;;;;;;;18.20;4.40;;;;;;;;;;4990301;28;20296;-74
2023/03/28 02:42:51;;;;;;;14.83;4.13;;;;;;;;;;5006811;28;20390;-74
2023/03/28 02:45:19;;;;;;;16.93;4.10;;;;;;;;;;5004663;28;20279;-74
2023/03/28 02:47:45;;;;;;;15.03;4.57;;;;;;;;;;4984397;28;20284;-74
2023/03/28 02:50:29;;;;;;;17.80;5.20;;;;;;;;;;4989052;28;20288;-75
2023/03/28 02:53:31;;;;;;;25.20;5.20;;;;;;;;;;5004950;28;20038;-75
2023/03/28 02:55:57;;;;;;;13.73;4.27;;;;;;;;;;4971272;28;20315;-74
2023/03/28 02:58:29;;;;;;;15.27;5.23;;;;;;;;;;4992107;28;20388;-74
2023/03/28 03:00:55;;;;;;;15.77;4.95;;;;;;;;;;4984696;28;20277;-74
2023/03/28 03:03:22;;;;;;;16.87;4.53;;;;;;;;;;4992286;28;20075;-74
2023/03/28 03:05:48;;;;;;;18.53;5.03;;;;;;;;;;4995663;28;20273;-74
2023/03/28 03:08:14;;;;;;;16.57;4.80;;;;;;;;;;4992701;28;20273;-74
2023/03/28 03:10:40;;;;;;;13.43;3.97;;;;;;;;;;4987440;28;20293;-74
2023/03/28 03:13:06;;;;;;;14.00;4.00;;;;;;;;;;4987531;28;20030;-75
2023/03/28 03:15:35;;;;;;;14.20;4.10;;;;;;;;;;4987732;28;20284;-74
2023/03/28 03:18:01;;;;;;;21.80;3.77;;;;;;;;;;5006323;28;20296;-73
2023/03/28 03:20:32;;;;;;;16.83;3.63;;;;;;;;;;5005214;28;20284;-74
2023/03/28 03:22:58;;;;;;;21.30;3.80;;;;;;;;;;5005868;28;20276;-74
2023/03/28 03:25:26;;;;;;;17.30;4.13;;;;;;;;;;4993290;28;20277;-74
2023/03/28 03:27:52;;;;;;;17.63;4.60;;;;;;;;;;5006519;28;20297;-74
2023/03/28 03:30:19;;;;;;;14.37;3.63;;;;;;;;;;4994543;28;20272;-74
2023/03/28 03:32:45;;;;;;;19.73;3.93;;;;;;;;;;4988327;28;20072;-74
2023/03/28 03:35:11;;;;;;;20.70;3.77;;;;;;;;;;4991222;28;20377;-74
2023/03/28 03:37:37;;;;;;;12.90;3.33;;;;;;;;;;5005844;28;20034;-74
2023/03/28 03:40:04;;;;;;;12.70;3.23;;;;;;;;;;4990048;28;20301;-75
2023/03/28 03:42:31;;;;;;;18.87;3.90;;;;;;;;;;4994831;28;20030;-74
2023/03/28 03:44:57;;;;;;;18.53;3.87;;;;;;;;;;5005243;28;20269;-74
2023/03/28 03:47:22;;;;;;;24.80;4.50;;;;;;;;;;4992223;28;20284;-74
2023/03/28 03:49:49;;;;;;;12.80;3.87;;;;;;;;;;4995152;28;20034;-75
2023/03/28 03:52:15;;;;;;;13.60;3.07;;;;;;;;;;4988478;28;20036;-73
2023/03/28 03:54:41;;;;;;;19.40;4.03;;;;;;;;;;5000094;28;20414;-74
2023/03/28 03:57:07;;;;;;;13.57;4.37;;;;;;;;;;4984907;28;20120;-74
2023/03/28 03:59:33;;;;;;;13.27;3.73;;;;;;;;;;4991278;28;20375;-74
2023/03/28 04:02:00;;;;;;;13.60;3.47;;;;;;;;;;4990256;28;20384;-74
2023/03/28 04:04:26;;;;;;;10.33;3.30;;;;;;;;;;4988366;28;20273;-74
2023/03/28 04:06:52;;;;;;;17.87;4.43;;;;;;;;;;5004332;28;20277;-74
2023/03/28 04:09:21;;;;;;;14.80;3.90;;;;;;;;;;4989708;28;20281;-74
2023/03/28 04:11:47;;;;;;;16.33;5.23;;;;;;;;;;4993644;28;20289;-74
2023/03/28 04:14:13;;;;;;;26.60;4.63;;;;;;;;;;4983318;28;20357;-73
2023/03/28 04:16:40;;;;;;;23.83;5.20;;;;;;;;;;5003035;28;20383;-74
2023/03/28 04:19:06;;;;;;;12.63;4.30;;;;;;;;;;4991647;28;20026;-74
2023/03/28 04:21:34;;;;;;;17.23;4.60;;;;;;;;;;4985036;28;20277;-74
2023/03/28 04:24:03;;;;;;;16.43;4.07;;;;;;;;;;4987147;28;20317;-75
2023/03/28 04:26:34;;;;;;;16.37;4.90;;;;;;;;;;4991019;28;20272;-74
2023/03/28 04:29:02;;;;;;;18.97;5.10;;;;;;;;;;4988032;28;20353;-74
2023/03/28 04:31:34;;;;;;;15.10;4.50;;;;;;;;;;4994698;28;20285;-73
2023/03/28 04:34:04;;;;;;;11.27;3.77;;;;;;;;;;4991730;28;20344;-75
2023/03/28 04:36:30;;;;;;;15.10;4.87;;;;;;;;;;4984281;28;20272;-74
2023/03/28 04:38:57;;;;;;;9.97;4.47;;;;;;;;;;4984406;28;20288;-73
2023/03/28 04:41:24;;;;;;;18.10;5.57;;;;;;;;;;4989189;28;20277;-74
2023/03/28 04:43:51;;;;;;;14.37;5.00;;;;;;;;;;4989524;28;20301;-74
2023/03/28 04:46:17;;;;;;;13.83;4.57;;;;;;;;;;5003915;28;20285;-74
2023/03/28 04:48:46;;;;;;;26.53;6.13;;;;;;;;;;4981513;28;20380;-74
2023/03/28 04:51:12;;;;;;;20.80;5.13;;;;;;;;;;4991099;28;20286;-74
2023/03/28 04:53:40;;;;;;;17.10;5.70;;;;;;;;;;4987169;28;20277;-74
2023/03/28 04:56:07;;;;;;;18.60;5.37;;;;;;;;;;4991171;28;20332;-74
2023/03/28 04:58:36;;;;;;;20.47;5.90;;;;;;;;;;5003983;28;20289;-74
2023/03/28 05:01:02;;;;;;;14.67;4.50;;;;;;;;;;4990871;28;20819;-74
2023/03/28 05:03:28;;;;;;;27.10;7.43;;;;;;;;;;4991003;28;20289;-74
2023/03/28 05:05:54;;;;;;;14.00;4.97;;;;;;;;;;5004062;28;20305;-74
2023/03/28 05:08:22;;;;;;;19.97;5.93;;;;;;;;;;4988662;28;20324;-74
2023/03/28 05:10:49;;;;;;;16.20;5.63;;;;;;;;;;4982712;28;20277;-74
2023/03/28 05:13:15;;;;;;;12.13;4.90;;;;;;;;;;4988408;28;20284;-74
2023/03/28 05:15:41;;;;;;;21.20;5.67;;;;;;;;;;4981511;28;20300;-75
2023/03/28 05:18:07;;;;;;;14.47;5.13;;;;;;;;;;4988069;28;20315;-74
2023/03/28 05:20:34;;;;;;;20.47;6.80;;;;;;;;;;4984005;28;20292;-75
2023/03/28 05:23:01;;;;;;;13.07;5.77;;;;;;;;;;4997221;28;20300;-74
2023/03/28 05:25:30;;;;;;;23.47;5.93;;;;;;;;;;4991060;28;20283;-74
2023/03/28 05:27:56;;;;;;;17.97;5.33;;;;;;;;;;5006696;28;21935;-75
2023/03/28 05:30:24;;;;;;;14.10;5.40;;;;;;;;;;5009959;28;20281;-74
2023/03/28 05:32:53;;;;;;;16.73;4.93;;;;;;;;;;4992501;28;20042;-74
2023/03/28 05:35:19;;;;;;;17.37;5.37;;;;;;;;;;4998931;28;20367;-74
2023/03/28 05:37:45;;;;;;;22.27;7.60;;;;;;;;;;5007250;28;20689;-74
2023/03/28 05:40:14;;;;;;;16.00;5.73;;;;;;;;;;4994271;28;20324;-74
2023/03/28 05:42:40;;;;;;;16.83;6.20;;;;;;;;;;4994464;28;20041;-74
2023/03/28 05:45:07;;;;;;;16.60;7.07;;;;;;;;;;5006443;28;20277;-75
2023/03/28 05:47:33;;;;;;;21.97;7.43;;;;;;;;;;4998071;28;20332;-74
2023/03/28 05:49:59;;;;;;;17.90;7.60;;;;;;;;;;5008689;28;20273;-74
2023/03/28 05:52:25;;;;;;;23.93;6.97;;;;;;;;;;4987119;28;20598;-74
2023/03/28 05:54:52;;;;;;;16.00;7.10;;;;;;;;;;4986674;28;20022;-75
2023/03/28 05:57:18;;;;;;;23.57;7.63;;;;;;;;;;4994372;28;20308;-74
2023/03/28 05:59:45;;;;;;;25.97;8.10;;;;;;;;;;4991720;28;20297;-74
2023/03/28 06:02:12;;;;;;;27.40;7.50;;;;;;;;;;4990376;28;20276;-74
2023/03/28 06:04:49;;;;;;;25.73;8.40;;;;;;;;;;4993603;28;20277;-75
2023/03/28 06:07:16;;;;;;;33.63;8.60;;;;;;;;;;4988347;28;20268;-75
2023/03/28 06:09:42;;;;;;;40.10;9.90;;;;;;;;;;4995919;28;20902;-75
2023/03/28 06:12:16;;;;;;;35.57;9.67;;;;;;;;;;4997868;28;20795;-76
2023/03/28 06:14:43;;;;;;;23.10;9.80;;;;;;;;;;5006912;28;20269;-75
2023/03/28 06:17:14;;;;;;;28.17;9.60;;;;;;;;;;4986357;28;20392;-76
2023/03/28 06:19:50;;;;;;;28.27;8.27;;;;;;;;;;4994382;28;20284;-75
2023/03/28 06:22:16;;;;;;;35.83;8.77;;;;;;;;;;5006807;28;20270;-75
2023/03/28 06:24:44;;;;;;;28.40;9.47;;;;;;;;;;5007384;28;20339;-75
2023/03/28 06:27:10;;;;;;;25.23;8.87;;;;;;;;;;5005303;28;20274;-75
2023/03/28 06:29:36;;;;;;;22.90;9.30;;;;;;;;;;4985665;28;20347;-75
2023/03/28 06:32:03;;;;;;;21.20;7.37;;;;;;;;;;5004540;28;20072;-76
2023/03/28 06:34:29;;;;;;;19.07;7.40;;;;;;;;;;5008129;28;21643;-76
2023/03/28 06:36:55;;;;;;;18.93;6.70;;;;;;;;;;4991062;28;20300;-74
2023/03/28 06:39:21;;;;;;;26.13;7.03;;;;;;;;;;4995106;28;20285;-76
2023/03/28 06:41:47;;;;;;;20.20;6.73;;;;;;;;;;5006782;28;20331;-75
2023/03/28 06:44:13;;;;;;;17.30;6.20;;;;;;;;;;5008541;28;20049;-75
2023/03/28 06:46:39;;;;;;;20.00;6.27;;;;;;;;;;4986004;28;20268;-76
2023/03/28 06:49:05;;;;;;;18.90;5.50;;;;;;;;;;4993328;28;20053;-75
2023/03/28 06:51:31;;;;;;;13.93;4.90;;;;;;;;;;5007501;28;20272;-74
2023/03/28 06:53:57;;;;;;;15.93;5.30;;;;;;;;;;4991006;28;20769;-74
2023/03/28 06:56:23;;;;;;;14.80;5.07;;;;;;;;;;4994126;28;20121;-76
2023/03/28 06:58:49;;;;;;;19.47;8.10;;;;;;;;;;4989782;28;20325;-76
2023/03/28 07:01:15;;;;;;;13.13;5.00;;;;;;;;;;4991048;28;20808;-76
2023/03/28 07:03:44;;;;;;;20.57;4.70;;;;;;;;;;5007405;28;20280;-76
2023/03/28 07:06:10;;;;;;;14.00;4.27;;;;;;;;;;4987496;28;20038;-76
2023/03/28 07:08:37;;;;;;;18.90;4.90;;;;;;;;;;4992787;28;20280;-76
2023/03/28 07:11:05;;;;;;;12.27;3.83;;;;;;;;;;4984921;28;20277;-76
2023/03/28 07:13:31;;;;;;;16.23;5.33;;;;;;;;;;5004895;28;20333;-75
2023/03/28 07:16:01;;;;;;;15.20;4.20;;;;;;;;;;5006238;28;20289;-75
2023/03/28 07:18:27;;;;;;;15.27;4.57;;;;;;;;;;4985244;28;20347;-76
2023/03/28 07:20:54;;;;;;;11.53;4.00;;;;;;;;;;4988771;28;20598;-75
2023/03/28 07:23:20;;;;;;;17.60;6.30;;;;;;;;;;4989082;28;20339;-75
2023/03/28 07:25:46;;;;;;;13.70;3.77;;;;;;;;;;4992279;28;20360;-76
2023/03/28 07:28:12;;;;;;;19.43;6.03;;;;;;;;;;5003568;28;20398;-73
2023/03/28 07:30:38;;;;;;;16.57;5.57;;;;;;;;;;5003132;28;20872;-74
2023/03/28 07:33:04;;;;;;;18.23;5.97;;;;;;;;;;5004413;28;20076;-76
2023/03/28 07:35:30;;;;;;;21.63;4.07;;;;;;;;;;5007248;28;20077;-75
2023/03/28 07:37:57;;;;;;;18.60;4.53;;;;;;;;;;4993564;28;20049;-74
2023/03/28 07:40:23;;;;;;;14.30;4.93;;;;;;;;;;5003505;28;20329;-75
2023/03/28 07:42:49;;;;;;;16.60;4.80;;;;;;;;;;4984517;28;20044;-76
2023/03/28 07:45:15;;;;;;;19.60;6.10;;;;;;;;;;5004667;28;20037;-74
2023/03/28 07:47:41;;;;;;;17.70;5.80;;;;;;;;;;4983955;28;20098;-76
2023/03/28 07:50:08;;;;;;;16.13;4.60;;;;;;;;;;4993179;28;20390;-76
2023/03/28 07:52:34;;;;;;;11.63;4.50;;;;;;;;;;4996583;28;20022;-76
2023/03/28 07:55:00;;;;;;;15.63;4.50;;;;;;;;;;4988736;28;20030;-76
2023/03/28 07:57:26;;;;;;;18.37;3.30;;;;;;;;;;5006573;28;20092;-75
2023/03/28 07:59:56;;;;;;;10.87;3.80;;;;;;;;;;4983785;28;20460;-75
2023/03/28 08:02:22;;;;;;;8.93;3.20;;;;;;;;;;5005023;28;20056;-74
2023/03/28 08:04:48;;;;;;;10.70;4.77;;;;;;;;;;5006650;28;20144;-76
2023/03/28 08:07:14;;;;;;;11.23;3.53;;;;;;;;;;4990305;28;20040;-76
2023/03/28 08:09:40;;;;;;;17.93;3.53;;;;;;;;;;4985149;28;20122;-75
2023/03/28 08:12:06;;;;;;;19.27;4.67;;;;;;;;;;4992908;28;20034;-75
2023/03/28 08:14:32;;;;;;;14.10;4.70;;;;;;;;;;4986728;28;20030;-75
2023/03/28 08:16:58;;;;;;;14.33;3.27;;;;;;;;;;4989868;28;20493;-75
2023/03/28 08:19:24;;;;;;;16.70;4.00;;;;;;;;;;4991454;28;20044;-75
2023/03/28 08:21:50;;;;;;;16.33;3.73;;;;;;;;;;4984931;28;20035;-74
2023/03/28 08:24:16;;;;;;;14.40;3.90;;;;;;;;;;5003803;28;20034;-74
2023/03/28 08:26:42;;;;;;;17.70;3.97;;;;;;;;;;4989888;28;20120;-75
2023/03/28 08:29:08;;;;;;;8.67;3.20;;;;;;;;;;4991599;28;20033;-74
2023/03/28 08:31:34;;;;;;;13.70;3.40;;;;;;;;;;4988538;28;20123;-75
2023/03/28 08:34:00;;;;;;;12.87;2.83;;;;;;;;;;4991170;28;20048;-74
2023/03/28 08:36:27;;;;;;;15.30;3.10;;;;;;;;;;4989517;28;20125;-74
2023/03/28 08:38:59;;;;;;;10.07;3.00;;;;;;;;;;5003668;28;20120;-75
2023/03/28 08:41:39;;;;;;;14.60;2.83;;;;;;;;;;4986720;28;20053;-75
2023/03/28 08:44:24;;;;;;;9.57;1.77;;;;;;;;;;5004396;28;20176;-75
2023/03/28 08:46:54;;;;;;;13.30;1.60;;;;;;;;;;5004933;28;20033;-75
2023/03/28 08:49:20;;;;;;;10.13;2.10;;;;;;;;;;4984065;28;20041;-74
2023/03/28 08:51:48;;;;;;;8.77;1.97;;;;;;;;;;4985819;28;20030;-74
2023/03/28 08:54:20;;;;;;;18.83;3.13;;;;;;;;;;5003877;28;20045;-74
2023/03/28 08:56:52;;;;;;;13.23;2.70;;;;;;;;;;4988378;28;20054;-74
2023/03/28 08:59:21;;;;;;;4.03;1.38;;;;;;;;;;5003194;28;20025;-74
2023/03/28 09:01:47;;;;;;;10.80;2.23;;;;;;;;;;5003255;28;20037;-75
2023/03/28 09:04:24;;;;;;;8.53;2.10;;;;;;;;;;5002564;28;20022;-74
2023/03/28 09:06:55;;;;;;;16.70;2.00;;;;;;;;;;4983115;28;20146;-74
2023/03/28 09:09:24;;;;;;;8.50;1.60;;;;;;;;;;4983940;28;20021;-74
2023/03/28 09:12:05;;;;;;;8.50;1.60;;;;;;;;;;4990790;28;20038;-74
2023/03/28 09:14:51;;;;;;;8.60;2.20;;;;;;;;;;5001563;28;20030;-74
2023/03/28 09:17:29;;;;;;;7.20;1.67;;;;;;;;;;4996996;28;20044;-74
2023/03/28 09:20:15;;;;;;;7.80;2.20;;;;;;;;;;4983754;28;20347;-74
2023/03/28 09:22:53;;;;;;;13.60;2.60;;;;;;;;;;5002240;28;20449;-74
2023/03/28 09:25:32;;;;;;;9.63;2.57;;;;;;;;;;4990420;28;20489;-75
2023/03/28 09:28:04;;;;;;;6.00;1.73;;;;;;;;;;4990016;28;20029;-75
2023/03/28 09:30:36;;;;;;;9.55;1.77;;;;;;;;;;5002973;28;21665;-75
2023/03/28 09:33:05;;;;;;;10.65;1.30;;;;;;;;;;4986065;28;20130;-75
2023/03/28 09:35:32;;;;;;;10.07;1.53;;;;;;;;;;4982964;28;20108;-74
2023/03/28 09:38:03;;;;;;;5.20;1.10;;;;;;;;;;5002937;28;21675;-75
2023/03/28 09:40:30;;;;;;;7.97;1.37;;;;;;;;;;5003607;28;20030;-73
2023/03/28 09:43:15;;;;;;;10.73;1.90;;;;;;;;;;4987214;28;20034;-74
2023/03/28 09:45:53;;;;;;;7.63;1.07;;;;;;;;;;4990563;28;20055;-74
2023/03/28 09:48:25;;;;;;;7.23;1.37;;;;;;;;;;5001419;28;20061;-74
2023/03/28 09:50:51;;;;;;;6.00;1.45;;;;;;;;;;4990931;28;20041;-74
2023/03/28 09:53:31;;;;;;;10.37;2.33;;;;;;;;;;5002131;28;20021;-74
2023/03/28 09:56:00;;;;;;;7.60;1.70;;;;;;;;;;5001855;28;20029;-73
2023/03/28 09:58:26;;;;;;;10.47;1.90;;;;;;;;;;4984490;28;20061;-74
2023/03/28 10:00:53;;;;;;;8.50;2.30;;;;;;;;;;4988363;28;20451;-74
2023/03/28 10:03:31;;;;;;;6.00;1.27;;;;;;;;;;4983941;28;20210;-74
2023/03/28 10:05:58;;;;;;;6.53;1.70;;;;;;;;;;5004893;28;20030;-74
2023/03/28 10:08:24;;;;;;;6.33;1.87;;;;;;;;;;5007201;28;20513;-74
2023/03/28 10:11:01;;;;;;;4.00;0.80;;;;;;;;;;5000722;28;20080;-74
2023/03/28 10:13:28;;;;;;;4.73;0.90;;;;;;;;;;4996078;28;20064;-74
2023/03/28 10:15:56;;;;;;;2.47;0.80;;;;;;;;;;4988460;28;20042;-75
2023/03/28 10:18:26;;;;;;;4.80;0.90;;;;;;;;;;5005775;28;20597;-75
2023/03/28 10:20:52;;;;;;;2.40;0.63;;;;;;;;;;4997730;28;20022;-74
2023/03/28 10:23:23;;;;;;;12.40;2.30;;;;;;;;;;4992343;28;20045;-74
2023/03/28 10:25:53;;;;;;;5.80;1.87;;;;;;;;;;4997397;28;20029;-75
2023/03/28 10:28:33;;;;;;;3.90;1.40;;;;;;;;;;5006385;28;20374;-74
2023/03/28 10:31:00;;;;;;;6.87;1.20;;;;;;;;;;4990449;28;20037;-75
2023/03/28 10:33:41;;;;;;;3.60;1.13;;;;;;;;;;5005022;28;20030;-75
2023/03/28 10:36:11;;;;;;;9.10;1.83;;;;;;;;;;5005948;28;20029;-75
2023/03/28 10:38:43;;;;;;;9.13;1.90;;;;;;;;;;5004652;28;20034;-75
2023/03/28 10:41:11;;;;;;;5.97;1.30;;;;;;;;;;4991613;28;20119;-75
2023/03/28 10:43:43;;;;;;;8.07;1.83;;;;;;;;;;5006213;28;20034;-74
2023/03/28 10:46:21;;;;;;;4.70;1.10;;;;;;;;;;4984842;28;20069;-75
2023/03/28 10:48:48;;;;;;;5.70;1.20;;;;;;;;;;4988169;28;20041;-75
2023/03/28 10:51:22;;;;;;;4.60;1.10;;;;;;;;;;5004183;28;20112;-74
2023/03/28 10:54:00;;;;;;;5.27;0.97;;;;;;;;;;4985352;28;20473;-75
2023/03/28 10:56:29;;;;;;;4.37;0.97;;;;;;;;;;4984954;28;20423;-74
2023/03/28 10:59:15;;;;;;;8.77;1.53;;;;;;;;;;4988703;28;20069;-72
2023/03/28 11:02:00;;;;;;;6.60;1.23;;;;;;;;;;4994753;28;20042;-74
2023/03/28 11:04:26;;;;;;;4.97;0.90;;;;;;;;;;5005514;28;20034;-73
2023/03/28 11:06:59;;;;;;;6.10;1.20;;;;;;;;;;4990032;28;20104;-76
2023/03/28 11:09:55;;;;;;;2.07;0.73;;;;;;;;;;4988342;28;21682;-75
2023/03/28 11:12:21;;;;;;;2.53;0.87;;;;;;;;;;4939272;28;20135;-76
2023/03/28 11:15:06;;;;;;;5.10;1.57;;;;;;;;;;5004446;28;20121;-76
2023/03/28 11:17:48;;;;;;;5.27;1.17;;;;;;;;;;4992060;28;20038;-76
2023/03/28 11:20:20;;;;;;;3.35;1.08;;;;;;;;;;5004017;28;20050;-76
2023/03/28 11:23:13;;;;;;;4.13;0.77;;;;;;;;;;4990261;28;20029;-76
2023/03/28 11:25:45;;;;;;;4.03;1.08;;;;;;;;;;5000952;28;20481;-77
2023/03/28 11:28:14;;;;;;;6.28;0.98;;;;;;;;;;5006091;28;20045;-76
2023/03/28 11:30:44;;;;;;;4.73;1.30;;;;;;;;;;5005637;28;20037;-77
2023/03/28 11:33:11;;;;;;;5.17;1.10;;;;;;;;;;4984164;28;20038;-76
2023/03/28 11:35:42;;;;;;;5.67;1.10;;;;;;;;;;5004000;28;20026;-76
2023/03/28 11:38:26;;;;;;;3.43;0.87;;;;;;;;;;4985355;28;20030;-77
2023/03/28 11:40:59;;;;;;;3.30;1.20;;;;;;;;;;4986383;28;20030;-77
2023/03/28 11:43:36;;;;;;;3.87;1.27;;;;;;;;;;4983845;28;20105;-76
2023/03/28 11:46:08;;;;;;;6.00;1.13;;;;;;;;;;5003631;28;20034;-77
2023/03/28 11:48:46;;;;;;;6.18;1.30;;;;;;;;;;4985181;28;20038;-77
2023/03/28 11:51:18;;;;;;;3.60;1.20;;;;;;;;;;4992633;28;20041;-78
2023/03/28 11:53:51;;;;;;;4.43;1.05;;;;;;;;;;4985144;28;20456;-75
2023/03/28 11:56:23;;;;;;;3.77;1.30;;;;;;;;;;4992110;28;20077;-75
2023/03/28 11:58:53;;;;;;;7.07;1.13;;;;;;;;;;5006681;28;20168;-74
2023/03/28 12:01:31;;;;;;;3.40;0.83;;;;;;;;;;5006170;28;20470;-74
2023/03/28 12:04:03;;;;;;;5.20;0.90;;;;;;;;;;5001655;28;20025;-74
2023/03/28 12:06:35;;;;;;;2.97;1.10;;;;;;;;;;4991919;28;20120;-74
2023/03/28 12:09:07;;;;;;;7.10;1.30;;;;;;;;;;5003351;28;20042;-74
2023/03/28 12:11:36;;;;;;;6.20;1.70;;;;;;;;;;5005054;28;20083;-77
2023/03/28 12:14:15;;;;;;;6.07;2.33;;;;;;;;;;5004477;28;20061;-75
2023/03/28 12:16:48;;;;;;;4.90;1.33;;;;;;;;;;5005227;28;20065;-74
2023/03/28 12:19:17;;;;;;;3.30;0.97;;;;;;;;;;5004470;28;20038;-75
2023/03/28 12:21:44;;;;;;;5.20;1.30;;;;;;;;;;5006425;28;20022;-76
2023/03/28 12:24:10;;;;;;;4.60;1.20;;;;;;;;;;4989870;28;20026;-75
2023/03/28 12:26:55;;;;;;;3.53;1.10;;;;;;;;;;4993383;28;20458;-75
2023/03/28 12:29:21;;;;;;;5.03;1.23;;;;;;;;;;5004614;28;20026;-75
2023/03/28 12:31:50;;;;;;;9.20;2.07;;;;;;;;;;5004457;28;20029;-75
2023/03/28 12:34:19;;;;;;;2.87;1.30;;;;;;;;;;4984173;28;20035;-75
2023/03/28 12:36:48;;;;;;;8.37;3.57;;;;;;;;;;5006260;28;20193;-76
2023/03/28 12:39:17;;;;;;;2.23;1.00;;;;;;;;;;4989524;28;20049;-75
2023/03/28 12:41:44;;;;;;;3.80;1.20;;;;;;;;;;4992770;28;20046;-75
2023/03/28 12:44:10;;;;;;;7.10;1.27;;;;;;;;;;4990486;28;20060;-75
2023/03/28 12:46:36;;;;;;;3.57;1.30;;;;;;;;;;5006706;28;20034;-76
2023/03/28 12:49:13;;;;;;;9.03;1.47;;;;;;;;;;4994068;28;20044;-75
2023/03/28 12:51:45;;;;;;;5.47;1.60;;;;;;;;;;4986739;28;20111;-76
2023/03/28 12:54:14;;;;;;;6.57;2.20;;;;;;;;;;4983707;28;20133;-74
2023/03/28 12:56:40;;;;;;;6.60;1.63;;;;;;;;;;4985281;28;20128;-76
2023/03/28 12:59:25;;;;;;;11.70;2.10;;;;;;;;;;4982553;28;20090;-74
2023/03/28 13:01:55;;;;;;;5.13;1.30;;;;;;;;;;5004203;28;20037;-75
2023/03/28 13:04:31;;;;;;;8.10;1.20;;;;;;;;;;4989466;28;20466;-74
2023/03/28 13:07:02;;;;;;;6.27;1.10;;;;;;;;;;4990453;28;20141;-76
2023/03/28 13:09:48;;;;;;;5.63;1.20;;;;;;;;;;4991735;28;20068;-76
2023/03/28 13:12:21;;;;;;;4.07;1.37;;;;;;;;;;5010091;28;20030;-75
2023/03/28 13:15:00;;;;;;;2.43;1.17;;;;;;;;;;4990828;28;20048;-76
2023/03/28 13:17:29;;;;;;;6.80;1.40;;;;;;;;;;4991205;28;20045;-75
2023/03/28 13:20:06;;;;;;;4.47;1.20;;;;;;;;;;4995113;28;20441;-75
2023/03/28 13:22:33;;;;;;;5.30;1.40;;;;;;;;;;4986501;28;20041;-76
2023/03/28 13:25:21;;;;;;;4.70;1.17;;;;;;;;;;5004854;28;20026;-75
2023/03/28 13:27:53;;;;;;;3.83;1.13;;;;;;;;;;5002618;28;20105;-75
2023/03/28 13:30:25;;;;;;;4.63;1.33;;;;;;;;;;5006041;28;20030;-76
2023/03/28 13:32:56;;;;;;;3.23;1.10;;;;;;;;;;4987393;28;20443;-75
2023/03/28 13:35:37;;;;;;;6.03;1.40;;;;;;;;;;5008156;28;20077;-75
2023/03/28 13:38:14;;;;;;;4.43;1.23;;;;;;;;;;4991386;28;20026;-76
2023/03/28 13:40:44;;;;;;;7.83;1.53;;;;;;;;;;4987205;28;20113;-75
2023/03/28 13:43:26;;;;;;;3.67;1.50;;;;;;;;;;4993724;28;20030;-76
2023/03/28 13:45:53;;;;;;;6.43;1.87;;;;;;;;;;4994840;28;20029;-76
2023/03/28 13:48:20;;;;;;;2.93;1.47;;;;;;;;;;5009297;28;20030;-76
2023/03/28 13:50:47;;;;;;;6.87;1.30;;;;;;;;;;4996512;28;20037;-75
2023/03/28 13:53:13;;;;;;;9.13;1.87;;;;;;;;;;4998062;28;20026;-74
2023/03/28 13:55:41;;;;;;;3.80;1.40;;;;;;;;;;4988531;28;20037;-75
2023/03/28 13:58:10;;;;;;;5.30;1.80;;;;;;;;;;5006893;28;20120;-76
2023/03/28 14:00:36;;;;;;;5.35;1.73;;;;;;;;;;5007517;28;20061;-76
2023/03/28 14:03:12;;;;;;;4.63;1.80;;;;;;;;;;4992616;28;20076;-75
2023/03/28 14:05:42;;;;;;;5.43;0.98;;;;;;;;;;5006122;28;20092;-76
2023/03/28 14:08:15;;;;;;;2.45;1.00;;;;;;;;;;5006921;28;20041;-75
2023/03/28 14:10:42;;;;;;;6.95;1.88;;;;;;;;;;5007609;28;20041;-75
2023/03/28 14:13:13;;;;;;;4.47;1.85;;;;;;;;;;5008740;28;20030;-75
2023/03/28 14:15:40;;;;;;;4.13;1.30;;;;;;;;;;5004310;28;20038;-75
2023/03/28 14:18:17;;;;;;;5.32;1.63;;;;;;;;;;4992278;28;20034;-74
2023/03/28 14:20:44;;;;;;;6.38;1.52;;;;;;;;;;4986766;28;20034;-76
2023/03/28 14:23:22;;;;;;;5.70;1.80;;;;;;;;;;5006308;28;20042;-74
2023/03/28 14:25:49;;;;;;;3.28;1.23;;;;;;;;;;4986247;28;20034;-75
2023/03/28 14:28:15;;;;;;;5.35;1.58;;;;;;;;;;4991597;28;20030;-76
2023/03/28 14:30:41;;;;;;;4.70;1.20;;;;;;;;;;4991856;28;20044;-75
2023/03/28 14:33:10;;;;;;;5.75;1.35;;;;;;;;;;4993796;28;20033;-76
2023/03/28 14:35:37;;;;;;;5.28;1.45;;;;;;;;;;5007990;28;20041;-75
2023/03/28 14:38:05;;;;;;;10.35;1.38;;;;;;;;;;4986674;28;20025;-76
2023/03/28 14:40:38;;;;;;;4.30;1.42;;;;;;;;;;5007895;28;20037;-76
2023/03/28 14:43:05;;;;;;;6.50;1.77;;;;;;;;;;5007141;28;20029;-75
2023/03/28 14:45:34;;;;;;;4.55;1.50;;;;;;;;;;5004860;28;20069;-76
2023/03/28 14:48:00;;;;;;;4.47;1.50;;;;;;;;;;5005821;28;20072;-75
2023/03/28 14:50:33;;;;;;;4.28;1.45;;;;;;;;;;5006077;28;20060;-74
2023/03/28 14:53:11;;;;;;;6.82;1.63;;;;;;;;;;5005259;28;20040;-74